Time;durP1;ratioP1;P1;durP2;ratioP2;P2;SDS_P1;SDS_P2;PMS_P1;PMS_P2;Temp;Humidity;BMP_temperature;BMP_pressure;BME280_temperature;BME280_humidity;BME280_pressure;Samples;Min_cycle;Max_cycle;Signal;HPM_P1;HPM_P2
2021/06/03 00:02:08;;;;;;;4.72;2.08;;;22.80;92.70;;;;;;5019344;28;20033;-76
2021/06/03 00:04:34;;;;;;;2.33;2.00;;;22.70;93.20;;;;;;5011338;28;20030;-81
2021/06/03 00:06:59;;;;;;;2.40;2.03;;;22.70;93.10;;;;;;5021299;28;20076;-83
2021/06/03 00:09:25;;;;;;;4.35;2.92;;;22.70;93.40;;;;;;5020482;28;20079;-84
2021/06/03 00:11:51;;;;;;;4.95;2.45;;;22.60;93.60;;;;;;5017371;28;20120;-77
2021/06/03 00:14:18;;;;;;;5.30;2.40;;;22.70;93.50;;;;;;5019439;28;20097;-81
2021/06/03 00:16:44;;;;;;;2.67;2.33;;;22.60;93.90;;;;;;5020460;28;20029;-84
2021/06/03 00:19:10;;;;;;;2.80;2.47;;;22.70;93.50;;;;;;5019986;28;20088;-82
2021/06/03 00:21:39;;;;;;;4.72;2.60;;;22.70;93.00;;;;;;5015987;28;20032;-84
2021/06/03 00:24:06;;;;;;;3.20;2.47;;;22.70;94.20;;;;;;5015526;28;20065;-78
2021/06/03 00:26:32;;;;;;;2.90;2.60;;;22.60;94.40;;;;;;5017744;28;20032;-82
2021/06/03 00:28:58;;;;;;;2.47;2.25;;;22.50;94.60;;;;;;5015429;28;20036;-83
2021/06/03 00:31:23;;;;;;;3.63;2.50;;;22.50;94.70;;;;;;5020713;28;20014;-83
2021/06/03 00:33:49;;;;;;;3.97;2.08;;;22.40;94.90;;;;;;5019103;28;20115;-77
2021/06/03 00:36:14;;;;;;;8.63;2.72;;;22.30;95.00;;;;;;5016752;28;20040;-83
2021/06/03 00:38:40;;;;;;;2.67;2.13;;;22.40;94.40;;;;;;5019165;28;20057;-76
2021/06/03 00:41:08;;;;;;;2.80;2.58;;;22.40;94.30;;;;;;5015769;28;20117;-76
2021/06/03 00:43:34;;;;;;;3.47;2.60;;;22.30;95.10;;;;;;5017610;28;20030;-80
2021/06/03 00:46:01;;;;;;;3.85;3.20;;;22.30;95.40;;;;;;5019176;28;20053;-79
2021/06/03 00:48:27;;;;;;;2.90;2.70;;;22.40;94.80;;;;;;5014089;28;20095;-82
2021/06/03 00:50:56;;;;;;;5.97;2.92;;;22.40;94.10;;;;;;5018066;28;20450;-82
2021/06/03 00:53:22;;;;;;;3.40;3.00;;;22.30;95.20;;;;;;5018994;28;20014;-81
2021/06/03 00:55:54;;;;;;;3.08;2.60;;;22.30;95.70;;;;;;5015411;28;20059;-74
2021/06/03 00:58:20;;;;;;;4.13;3.08;;;22.30;95.40;;;;;;5018853;28;20033;-80
2021/06/03 01:00:50;;;;;;;4.00;3.15;;;22.30;95.20;;;;;;5014383;28;20053;-82
2021/06/03 01:03:17;;;;;;;3.75;3.03;;;22.40;94.60;;;;;;5016427;28;20030;-82
2021/06/03 01:06:01;;;;;;;3.08;2.80;;;22.40;94.70;;;;;;5014305;28;20466;-84
2021/06/03 01:08:52;;;;;;;3.33;3.03;;;22.40;95.20;;;;;;5015308;28;20041;-84
2021/06/03 01:11:32;;;;;;;3.20;2.90;;;22.40;95.40;;;;;;5016142;28;20049;-84
2021/06/03 01:14:10;;;;;;;3.45;2.90;;;22.40;96.20;;;;;;5018162;28;20037;-83
2021/06/03 01:16:37;;;;;;;6.18;3.25;;;22.40;95.70;;;;;;5022107;28;20064;-85
2021/06/03 01:19:09;;;;;;;4.45;3.30;;;22.40;95.20;;;;;;5017470;28;20065;-80
2021/06/03 01:21:48;;;;;;;4.45;3.10;;;22.30;95.70;;;;;;5020365;28;20026;-85
2021/06/03 01:24:29;;;;;;;5.40;3.28;;;22.30;95.90;;;;;;5023227;28;20048;-78
2021/06/03 01:27:05;;;;;;;3.58;3.00;;;22.30;95.50;;;;;;5015518;28;20026;-81
2021/06/03 01:29:41;;;;;;;5.72;2.83;;;22.20;96.20;;;;;;5020295;28;20026;-79
2021/06/03 01:32:07;;;;;;;4.70;3.15;;;22.10;96.60;;;;;;5018685;28;20028;-76
2021/06/03 01:34:33;;;;;;;4.15;3.30;;;22.10;96.60;;;;;;5016674;28;20029;-84
2021/06/03 01:36:59;;;;;;;5.90;3.60;;;22.10;96.10;;;;;;5019424;28;20030;-85
2021/06/03 01:39:25;;;;;;;3.85;3.55;;;22.00;96.60;;;;;;5020978;28;20133;-85
2021/06/03 01:41:55;;;;;;;5.32;4.10;;;21.90;96.80;;;;;;5016407;28;20093;-75
2021/06/03 01:44:21;;;;;;;6.63;4.10;;;21.90;96.80;;;;;;5021115;28;20504;-84
2021/06/03 01:46:47;;;;;;;3.85;3.50;;;21.90;96.80;;;;;;5013768;28;20034;-85
2021/06/03 01:49:13;;;;;;;4.78;3.75;;;21.90;96.60;;;;;;5016977;28;20026;-85
2021/06/03 01:51:39;;;;;;;6.47;3.92;;;21.90;96.90;;;;;;5013018;28;20088;-84
2021/06/03 01:54:05;;;;;;;4.40;4.10;;;21.90;96.80;;;;;;5019817;28;20067;-80
2021/06/03 01:56:30;;;;;;;4.38;3.92;;;21.80;96.80;;;;;;5017682;28;20104;-83
2021/06/03 01:58:58;;;;;;;4.18;3.72;;;21.80;97.30;;;;;;5015616;28;20486;-85
2021/06/03 02:01:23;;;;;;;4.90;3.88;;;21.70;97.50;;;;;;5020835;28;20051;-72
2021/06/03 02:03:49;;;;;;;4.50;4.10;;;21.70;97.70;;;;;;5012359;28;20033;-72
2021/06/03 02:06:15;;;;;;;4.68;4.10;;;21.70;97.10;;;;;;5012802;28;20493;-80
2021/06/03 02:08:41;;;;;;;5.13;4.65;;;21.70;97.10;;;;;;5019518;28;20430;-85
2021/06/03 02:11:08;;;;;;;6.43;5.30;;;21.60;97.30;;;;;;5018770;28;20034;-82
2021/06/03 02:13:43;;;;;;;6.65;5.20;;;21.60;97.40;;;;;;5020698;28;20125;-84
2021/06/03 02:16:28;;;;;;;5.68;5.18;;;21.50;97.70;;;;;;5022576;28;20557;-83
2021/06/03 02:19:22;;;;;;;5.80;4.90;;;21.50;97.80;;;;;;5020684;28;20057;-83
2021/06/03 02:21:49;;;;;;;5.50;5.00;;;21.50;98.00;;;;;;5013571;28;20388;-84
2021/06/03 02:24:15;;;;;;;6.60;5.00;;;21.40;98.00;;;;;;5025283;28;20115;-82
2021/06/03 02:26:42;;;;;;;4.45;4.00;;;21.40;98.00;;;;;;5018341;28;20083;-82
2021/06/03 02:29:09;;;;;;;6.68;5.07;;;21.30;98.30;;;;;;5022332;28;20128;-81
2021/06/03 02:31:36;;;;;;;6.25;5.18;;;21.30;98.30;;;;;;5023522;28;20516;-72
2021/06/03 02:34:03;;;;;;;5.07;4.60;;;21.30;98.50;;;;;;5019863;28;20021;-72
2021/06/03 02:36:29;;;;;;;6.00;5.30;;;21.30;98.80;;;;;;5020683;28;20022;-72
2021/06/03 02:38:54;;;;;;;5.43;4.85;;;21.20;98.60;;;;;;5020473;28;20033;-72
2021/06/03 02:41:20;;;;;;;6.53;5.97;;;21.10;98.70;;;;;;5021697;28;20108;-72
2021/06/03 02:43:47;;;;;;;6.90;5.97;;;21.10;98.50;;;;;;5018190;28;20030;-73
2021/06/03 02:46:15;;;;;;;6.45;5.80;;;21.10;98.70;;;;;;5022672;28;20390;-72
2021/06/03 02:48:40;;;;;;;6.80;6.20;;;21.10;97.90;;;;;;5022972;28;20490;-72
2021/06/03 02:51:06;;;;;;;6.68;5.90;;;21.10;97.90;;;;;;5020338;28;20105;-72
2021/06/03 02:53:32;;;;;;;6.80;6.20;;;21.10;98.50;;;;;;5023844;28;20052;-72
2021/06/03 02:55:58;;;;;;;5.72;5.20;;;21.10;98.00;;;;;;5020006;28;20034;-73
2021/06/03 02:58:24;;;;;;;8.38;5.82;;;21.10;99.50;;;;;;5028247;28;20112;-72
2021/06/03 03:00:50;;;;;;;6.15;5.65;;;21.00;98.50;;;;;;5022137;28;20072;-72
2021/06/03 03:03:17;;;;;;;6.25;5.75;;;21.10;99.00;;;;;;5022919;28;20018;-73
2021/06/03 03:05:44;;;;;;;5.60;5.20;;;20.90;99.30;;;;;;5022316;28;20022;-72
2021/06/03 03:08:10;;;;;;;6.22;5.63;;;20.90;99.50;;;;;;5016660;28;20359;-72
2021/06/03 03:10:39;;;;;;;8.75;5.80;;;20.80;99.90;;;;;;5020269;28;20049;-73
2021/06/03 03:13:06;;;;;;;6.60;6.00;;;20.70;99.90;;;;;;5017752;28;20049;-72
2021/06/03 03:15:32;;;;;;;7.72;6.18;;;20.70;99.90;;;;;;5018334;28;20018;-72
2021/06/03 03:17:57;;;;;;;7.13;5.68;;;20.60;99.90;;;;;;5015773;28;20109;-72
2021/06/03 03:20:24;;;;;;;6.80;6.10;;;20.70;99.70;;;;;;5016715;28;20116;-72
2021/06/03 03:22:51;;;;;;;10.25;5.93;;;20.70;99.90;;;;;;5016024;28;20084;-72
2021/06/03 03:25:17;;;;;;;7.18;5.78;;;20.70;99.90;;;;;;5017162;28;20113;-72
2021/06/03 03:27:44;;;;;;;6.53;5.93;;;20.70;99.50;;;;;;5019833;28;20026;-72
2021/06/03 03:30:13;;;;;;;5.95;5.45;;;20.60;99.90;;;;;;5014150;28;20152;-72
2021/06/03 03:32:39;;;;;;;6.13;5.57;;;20.60;98.90;;;;;;5017176;28;20104;-72
2021/06/03 03:35:08;;;;;;;6.45;5.88;;;20.60;98.70;;;;;;5019199;28;20458;-72
2021/06/03 03:37:34;;;;;;;6.45;5.55;;;20.60;99.00;;;;;;5020674;28;20060;-72
2021/06/03 03:40:00;;;;;;;7.60;5.78;;;20.60;99.70;;;;;;5021088;28;20088;-73
2021/06/03 03:42:25;;;;;;;6.65;6.03;;;20.60;99.90;;;;;;5019171;28;20017;-73
2021/06/03 03:44:51;;;;;;;6.45;5.82;;;20.50;99.30;;;;;;5018760;28;20049;-72
2021/06/03 03:47:18;;;;;;;5.60;4.97;;;20.50;99.90;;;;;;5018403;28;20021;-72
2021/06/03 03:49:43;;;;;;;7.18;5.93;;;20.50;99.90;;;;;;5021651;28;20025;-72
2021/06/03 03:52:10;;;;;;;6.20;5.53;;;20.50;99.50;;;;;;5019871;28;20398;-73
2021/06/03 03:54:36;;;;;;;6.85;6.25;;;20.50;99.90;;;;;;5015406;28;20041;-72
2021/06/03 03:57:02;;;;;;;6.53;5.90;;;20.50;99.90;;;;;;5014760;28;20030;-72
2021/06/03 03:59:28;;;;;;;7.80;6.07;;;20.50;99.70;;;;;;5020325;28;20575;-73
2021/06/03 04:01:54;;;;;;;8.63;5.47;;;20.50;99.90;;;;;;5017253;28;20213;-73
2021/06/03 04:04:24;;;;;;;5.88;5.38;;;20.50;99.90;;;;;;5016460;28;20508;-73
2021/06/03 04:06:50;;;;;;;6.28;5.78;;;20.50;99.90;;;;;;5020745;28;20021;-73
2021/06/03 04:09:17;;;;;;;5.53;5.10;;;20.50;99.90;;;;;;5016756;28;20035;-72
2021/06/03 04:11:43;;;;;;;6.20;5.10;;;20.50;99.90;;;;;;5022297;28;20021;-72
2021/06/03 04:14:08;;;;;;;5.78;5.28;;;20.50;99.90;;;;;;5022466;28;20056;-73
2021/06/03 04:16:34;;;;;;;6.30;5.70;;;20.40;99.90;;;;;;5020848;28;20025;-72
2021/06/03 04:19:00;;;;;;;7.45;5.53;;;20.50;99.90;;;;;;5015431;28;20138;-72
2021/06/03 04:21:25;;;;;;;5.95;5.00;;;20.50;99.90;;;;;;5014331;28;20037;-72
2021/06/03 04:23:51;;;;;;;5.88;5.30;;;20.50;99.90;;;;;;5013637;28;20026;-72
2021/06/03 04:26:17;;;;;;;7.30;5.20;;;20.50;99.90;;;;;;5018232;28;20097;-72
2021/06/03 04:28:42;;;;;;;5.60;5.10;;;20.50;99.90;;;;;;5021336;28;20528;-73
2021/06/03 04:31:09;;;;;;;5.75;5.22;;;20.60;99.90;;;;;;5023060;28;20065;-72
2021/06/03 04:33:35;;;;;;;6.20;5.70;;;20.60;99.90;;;;;;5016909;28;20053;-72
2021/06/03 04:36:01;;;;;;;6.75;5.97;;;20.60;99.90;;;;;;5017236;28;20022;-72
2021/06/03 04:38:27;;;;;;;10.00;5.43;;;20.70;99.90;;;;;;5017350;28;20479;-72
2021/06/03 04:40:52;;;;;;;5.78;5.07;;;20.70;99.90;;;;;;5020251;28;20091;-72
2021/06/03 04:43:18;;;;;;;6.07;4.75;;;20.70;99.90;;;;;;5017164;28;20024;-72
2021/06/03 04:45:44;;;;;;;6.30;5.30;;;20.80;99.90;;;;;;5017443;28;20033;-72
2021/06/03 04:48:10;;;;;;;5.70;5.10;;;20.80;99.90;;;;;;5021652;28;20022;-72
2021/06/03 04:50:37;;;;;;;5.28;4.80;;;20.90;99.90;;;;;;5013542;28;20034;-72
2021/06/03 04:53:04;;;;;;;8.23;5.65;;;20.90;99.90;;;;;;5019600;28;20022;-72
2021/06/03 04:55:31;;;;;;;6.18;5.55;;;20.90;99.90;;;;;;5016738;28;20474;-72
2021/06/03 04:57:57;;;;;;;6.57;5.03;;;21.00;99.90;;;;;;5017626;28;20030;-72
2021/06/03 05:00:29;;;;;;;8.25;5.22;;;21.00;99.90;;;;;;5020513;28;20026;-72
2021/06/03 05:02:56;;;;;;;7.60;5.40;;;21.10;99.90;;;;;;5013873;28;20090;-72
2021/06/03 05:05:22;;;;;;;7.55;5.57;;;21.30;99.90;;;;;;5018697;28;20035;-72
2021/06/03 05:07:48;;;;;;;5.72;5.22;;;21.20;99.90;;;;;;5015311;28;20472;-72
2021/06/03 05:10:15;;;;;;;5.93;5.18;;;21.30;99.90;;;;;;5019045;28;20040;-72
2021/06/03 05:12:41;;;;;;;6.05;5.43;;;21.20;99.90;;;;;;5016761;28;20525;-72
2021/06/03 05:15:09;;;;;;;6.18;5.50;;;21.30;99.90;;;;;;5019348;28;20371;-72
2021/06/03 05:17:35;;;;;;;10.05;6.20;;;21.30;99.90;;;;;;5021659;28;20018;-72
2021/06/03 05:20:03;;;;;;;6.57;5.57;;;21.30;99.90;;;;;;5021443;28;20021;-72
2021/06/03 05:22:29;;;;;;;5.78;5.28;;;21.40;99.90;;;;;;5021468;28;20030;-72
2021/06/03 05:24:54;;;;;;;8.75;5.70;;;21.40;99.90;;;;;;5012783;28;20033;-72
2021/06/03 05:27:20;;;;;;;9.90;5.93;;;21.30;99.90;;;;;;5020238;28;20037;-73
2021/06/03 05:29:45;;;;;;;7.10;5.55;;;21.30;99.90;;;;;;5017604;28;20037;-72
2021/06/03 05:32:11;;;;;;;7.30;5.57;;;21.40;99.90;;;;;;5012852;28;20033;-72
2021/06/03 05:34:36;;;;;;;8.52;5.95;;;21.40;99.90;;;;;;5017622;28;20030;-72
2021/06/03 05:37:03;;;;;;;9.07;6.18;;;21.40;99.90;;;;;;5018037;28;20029;-72
2021/06/03 05:39:29;;;;;;;8.73;6.35;;;21.50;99.90;;;;;;5014913;28;20049;-71
2021/06/03 05:41:54;;;;;;;6.80;5.90;;;21.50;99.90;;;;;;5018485;28;20030;-71
2021/06/03 05:44:20;;;;;;;6.50;6.00;;;21.50;99.90;;;;;;5024015;28;20087;-72
2021/06/03 05:46:46;;;;;;;6.28;5.47;;;21.60;99.90;;;;;;5018508;28;20080;-72
2021/06/03 05:49:12;;;;;;;7.03;6.35;;;21.50;99.90;;;;;;5019597;28;20119;-72
2021/06/03 05:51:40;;;;;;;10.15;6.72;;;21.60;99.90;;;;;;5019295;28;20022;-71
2021/06/03 05:54:07;;;;;;;7.05;6.35;;;21.50;99.90;;;;;;5016496;28;20049;-72
2021/06/03 05:56:33;;;;;;;10.70;7.18;;;21.50;99.90;;;;;;5017169;28;20018;-72
2021/06/03 05:58:59;;;;;;;10.95;6.90;;;21.60;99.90;;;;;;5016859;28;20042;-72
2021/06/03 06:01:25;;;;;;;7.80;6.10;;;21.60;99.90;;;;;;5017196;28;20636;-72
2021/06/03 06:06:29;;;;;;;9.18;7.38;;;21.70;99.90;;;;;;5019257;28;20041;-72
2021/06/03 06:08:58;;;;;;;9.85;6.75;;;21.80;99.90;;;;;;5020558;28;20065;-71
2021/06/03 06:11:25;;;;;;;9.15;7.45;;;21.80;99.90;;;;;;5023432;28;20529;-71
2021/06/03 06:13:51;;;;;;;12.18;7.10;;;21.90;99.90;;;;;;5014580;28;20030;-71
2021/06/03 06:16:17;;;;;;;7.03;6.32;;;22.00;99.90;;;;;;5023748;28;20389;-72
2021/06/03 06:18:44;;;;;;;9.52;6.88;;;22.10;99.90;;;;;;5021446;28;20036;-72
2021/06/03 06:21:11;;;;;;;9.20;6.45;;;22.10;99.90;;;;;;5022260;28;20018;-72
2021/06/03 06:23:38;;;;;;;9.75;6.45;;;22.20;99.90;;;;;;5022569;28;20041;-72
2021/06/03 06:26:05;;;;;;;7.85;7.03;;;22.30;99.90;;;;;;5014986;28;20029;-72
2021/06/03 06:28:31;;;;;;;7.53;6.20;;;22.30;99.90;;;;;;5021733;28;20021;-72
2021/06/03 06:30:57;;;;;;;8.10;6.70;;;22.30;99.90;;;;;;5016135;28;20081;-71
2021/06/03 06:33:23;;;;;;;8.45;7.15;;;22.30;99.90;;;;;;5021462;28;20028;-82
2021/06/03 06:35:50;;;;;;;10.18;7.00;;;22.30;99.90;;;;;;5020993;28;20041;-72
2021/06/03 06:38:21;;;;;;;9.38;7.35;;;22.30;99.90;;;;;;5021312;28;20585;-72
2021/06/03 06:40:47;;;;;;;9.80;7.65;;;22.40;99.90;;;;;;5018020;28;20505;-71
2021/06/03 06:43:13;;;;;;;11.32;7.95;;;22.40;99.90;;;;;;5017140;28;20064;-71
2021/06/03 06:45:39;;;;;;;7.28;6.60;;;22.40;99.90;;;;;;5014011;28;20038;-71
2021/06/03 06:48:07;;;;;;;7.75;6.03;;;22.50;99.90;;;;;;5021220;28;20060;-71
2021/06/03 06:50:34;;;;;;;9.57;6.95;;;22.60;99.90;;;;;;5017749;28;20118;-72
2021/06/03 06:53:00;;;;;;;13.25;7.43;;;22.60;99.90;;;;;;5015947;28;20485;-72
2021/06/03 06:55:26;;;;;;;10.05;6.85;;;22.60;99.90;;;;;;5016719;28;20041;-72
2021/06/03 06:57:53;;;;;;;10.90;7.70;;;22.60;99.90;;;;;;5017281;28;20033;-72
2021/06/03 07:00:21;;;;;;;11.15;7.55;;;22.60;99.90;;;;;;5019492;28;20398;-72
2021/06/03 07:02:47;;;;;;;13.50;7.65;;;22.70;99.90;;;;;;5017646;28;20386;-72
2021/06/03 07:05:13;;;;;;;11.25;8.15;;;22.70;99.90;;;;;;5015798;28;20101;-71
2021/06/03 07:07:39;;;;;;;14.15;8.98;;;22.70;99.90;;;;;;5020406;28;20021;-71
2021/06/03 07:10:07;;;;;;;12.75;8.38;;;22.80;99.90;;;;;;5022058;28;20033;-71
2021/06/03 07:12:32;;;;;;;11.50;9.00;;;22.80;99.90;;;;;;5015548;28;20057;-72
2021/06/03 07:14:58;;;;;;;12.90;8.40;;;22.90;99.90;;;;;;5023864;28;20060;-71
2021/06/03 07:17:24;;;;;;;12.18;9.40;;;22.90;99.90;;;;;;5019753;28;20029;-71
2021/06/03 07:19:50;;;;;;;12.75;8.73;;;22.80;99.90;;;;;;5016508;28;20041;-71
2021/06/03 07:22:15;;;;;;;13.02;8.38;;;22.90;99.90;;;;;;5021588;28;20509;-72
2021/06/03 07:24:41;;;;;;;11.82;7.97;;;23.00;99.90;;;;;;5019138;28;20029;-71
2021/06/03 07:27:07;;;;;;;10.13;8.20;;;23.10;99.90;;;;;;5019935;28;20021;-71
2021/06/03 07:29:33;;;;;;;12.43;8.77;;;23.30;99.90;;;;;;5020710;28;20060;-71
2021/06/03 07:31:59;;;;;;;12.32;8.02;;;23.20;99.90;;;;;;5022009;28;20073;-71
2021/06/03 07:34:25;;;;;;;10.00;9.00;;;23.10;99.90;;;;;;5004488;28;20191;-71
2021/06/03 07:36:51;;;;;;;10.88;8.40;;;23.00;99.90;;;;;;5014259;28;20022;-72
2021/06/03 07:39:17;;;;;;;12.98;9.02;;;23.00;99.90;;;;;;5014375;28;20041;-71
2021/06/03 07:41:42;;;;;;;10.13;7.00;;;23.00;99.90;;;;;;5018294;28;20032;-71
2021/06/03 07:44:08;;;;;;;11.88;8.70;;;23.20;99.90;;;;;;5019019;28;20394;-70
2021/06/03 07:46:34;;;;;;;9.27;7.47;;;23.30;99.90;;;;;;5022271;28;20029;-71
2021/06/03 07:49:00;;;;;;;11.40;9.00;;;23.40;99.90;;;;;;5016678;28;20089;-71
2021/06/03 07:51:26;;;;;;;10.90;8.98;;;23.50;99.90;;;;;;5021238;28;20018;-71
2021/06/03 07:53:52;;;;;;;12.55;8.38;;;23.40;99.90;;;;;;5014239;28;20072;-71
2021/06/03 07:56:17;;;;;;;9.80;8.65;;;23.40;99.90;;;;;;5019200;28;20485;-73
2021/06/03 07:58:43;;;;;;;9.68;8.43;;;23.50;99.90;;;;;;5019061;28;20137;-71
2021/06/03 08:01:09;;;;;;;11.13;7.93;;;23.50;99.90;;;;;;5019776;28;20581;-72
2021/06/03 08:03:35;;;;;;;11.80;9.23;;;23.80;99.90;;;;;;5017552;28;20036;-71
2021/06/03 08:06:00;;;;;;;18.45;10.18;;;23.70;99.90;;;;;;5020028;28;20025;-70
2021/06/03 08:08:26;;;;;;;12.45;9.07;;;23.60;99.90;;;;;;5015940;28;20024;-70
2021/06/03 08:10:52;;;;;;;12.55;8.35;;;23.50;99.90;;;;;;5017533;28;20105;-71
2021/06/03 08:13:18;;;;;;;11.13;9.05;;;23.60;99.90;;;;;;5017903;28;20112;-70
2021/06/03 08:15:45;;;;;;;12.13;9.27;;;23.70;99.90;;;;;;5012046;28;20049;-71
2021/06/03 08:18:13;;;;;;;12.38;9.52;;;23.60;99.90;;;;;;5017274;28;20026;-70
2021/06/03 08:20:52;;;;;;;13.82;10.15;;;23.60;99.90;;;;;;5012783;28;20037;-71
2021/06/03 08:23:18;;;;;;;17.83;10.77;;;23.70;99.90;;;;;;5013151;28;20085;-70
2021/06/03 08:25:45;;;;;;;13.98;10.93;;;23.70;99.90;;;;;;5014081;28;20032;-70
2021/06/03 08:28:11;;;;;;;11.27;9.52;;;23.50;99.90;;;;;;5017870;28;20041;-71
2021/06/03 08:30:38;;;;;;;9.85;8.40;;;23.50;99.90;;;;;;5012005;28;20026;-71
2021/06/03 08:33:05;;;;;;;10.77;9.68;;;23.40;99.90;;;;;;5015233;28;20113;-71
2021/06/03 08:35:31;;;;;;;12.27;10.65;;;23.40;99.90;;;;;;5013455;28;20025;-71
2021/06/03 08:38:00;;;;;;;14.40;11.70;;;23.40;99.90;;;;;;5018494;28;20045;-71
2021/06/03 08:40:28;;;;;;;12.93;10.63;;;23.50;99.90;;;;;;5023705;28;20105;-70
2021/06/03 08:42:56;;;;;;;14.90;11.50;;;23.50;99.90;;;;;;5015611;28;20038;-72
2021/06/03 08:45:24;;;;;;;13.73;12.30;;;23.30;99.90;;;;;;5016607;28;20014;-72
2021/06/03 08:47:51;;;;;;;17.05;12.68;;;23.30;99.90;;;;;;5014770;28;20029;-72
2021/06/03 08:50:17;;;;;;;15.98;12.38;;;23.20;99.90;;;;;;5014273;28;20026;-72
2021/06/03 08:52:43;;;;;;;13.65;11.85;;;23.40;99.90;;;;;;5015759;28;20052;-71
2021/06/03 08:56:13;;;;;;;14.82;12.30;;;23.30;99.90;;;;;;5010263;28;20501;-71
2021/06/03 08:58:02;;;;;;;14.15;12.63;;;23.50;99.90;;;;;;5018203;28;20093;-71
2021/06/03 09:00:28;;;;;;;12.98;11.55;;;23.60;99.90;;;;;;5019461;28;20025;-71
2021/06/03 09:02:54;;;;;;;14.25;11.95;;;23.60;99.90;;;;;;5015191;28;20070;-72
2021/06/03 09:05:19;;;;;;;15.93;12.25;;;23.90;99.90;;;;;;5016431;28;20440;-72
2021/06/03 09:07:45;;;;;;;14.15;11.32;;;23.90;99.90;;;;;;5019009;28;20045;-71
2021/06/03 09:10:32;;;;;;;14.38;12.13;;;24.00;99.90;;;;;;5020447;28;20030;-72
2021/06/03 09:13:19;;;;;;;14.98;12.60;;;23.90;99.90;;;;;;5017614;28;20031;-71
2021/06/03 09:15:52;;;;;;;13.90;12.13;;;24.00;99.90;;;;;;5016130;28;20048;-71
2021/06/03 09:18:32;;;;;;;13.85;11.77;;;24.10;99.90;;;;;;5027013;28;20631;-71
2021/06/03 09:21:23;;;;;;;15.02;12.48;;;24.40;99.90;;;;;;5020912;28;20108;-71
2021/06/03 09:23:56;;;;;;;13.70;11.60;;;24.40;99.90;;;;;;5019862;28;20037;-71
2021/06/03 09:26:24;;;;;;;12.98;11.68;;;24.70;99.90;;;;;;5020930;28;20115;-71
2021/06/03 09:28:55;;;;;;;16.00;13.90;;;24.90;99.90;;;;;;5020618;28;20033;-71
2021/06/03 09:31:31;;;;;;;15.70;12.60;;;24.60;99.90;;;;;;5019918;28;20026;-71
2021/06/03 09:34:08;;;;;;;13.68;12.30;;;24.70;99.90;;;;;;5024232;28;20017;-71
2021/06/03 09:36:54;;;;;;;12.90;11.63;;;24.90;99.90;;;;;;5026367;28;20065;-71
2021/06/03 09:39:29;;;;;;;14.63;11.68;;;24.90;99.90;;;;;;5017595;28;20815;-71
2021/06/03 09:42:05;;;;;;;14.30;12.48;;;24.90;99.90;;;;;;5020426;28;20037;-71
2021/06/03 09:44:31;;;;;;;13.80;12.35;;;24.90;99.90;;;;;;5017991;28;20442;-71
2021/06/03 09:47:15;;;;;;;15.07;13.13;;;25.00;99.90;;;;;;5018565;28;20065;-71
2021/06/03 09:49:42;;;;;;;12.93;11.48;;;25.00;99.90;;;;;;5020602;28;20136;-70
2021/06/03 09:52:18;;;;;;;12.93;11.73;;;25.30;99.90;;;;;;5022466;28;20026;-71
2021/06/03 09:54:56;;;;;;;14.32;12.00;;;25.60;99.90;;;;;;5014688;28;20120;-71
2021/06/03 09:57:31;;;;;;;12.40;11.20;;;25.70;99.90;;;;;;5017002;28;20047;-71
2021/06/03 10:00:01;;;;;;;13.95;11.88;;;25.80;99.90;;;;;;5018403;28;20149;-71
2021/06/03 10:02:31;;;;;;;15.27;12.02;;;25.90;99.90;;;;;;5021058;28;20052;-72
2021/06/03 10:04:57;;;;;;;12.02;10.82;;;26.10;99.90;;;;;;5014184;28;20486;-72
2021/06/03 10:07:24;;;;;;;18.10;14.10;;;26.10;99.90;;;;;;5023453;28;20027;-71
2021/06/03 10:09:53;;;;;;;17.58;12.70;;;26.50;99.90;;;;;;5017101;28;20029;-71
2021/06/03 10:12:25;;;;;;;12.93;11.50;;;26.20;99.90;;;;;;5023611;28;20030;-72
2021/06/03 10:14:55;;;;;;;12.20;10.90;;;26.00;99.90;;;;;;5019366;28;20041;-71
2021/06/03 10:17:25;;;;;;;13.70;10.90;;;26.00;99.90;;;;;;5025766;28;20265;-71
2021/06/03 10:19:53;;;;;;;16.13;11.05;;;26.00;99.90;;;;;;5019510;28;20042;-71
2021/06/03 10:22:23;;;;;;;12.95;10.77;;;25.90;99.90;;;;;;5023370;28;20025;-74
2021/06/03 10:24:56;;;;;;;13.60;12.18;;;25.90;99.90;;;;;;5020510;28;20084;-71
2021/06/03 10:27:38;;;;;;;13.82;10.98;;;26.00;99.90;;;;;;5017272;28;20037;-71
2021/06/03 10:30:17;;;;;;;12.07;9.68;;;26.10;99.90;;;;;;5020408;28;20018;-71
2021/06/03 10:32:44;;;;;;;13.65;10.38;;;26.30;99.90;;;;;;5019552;28;20544;-72
2021/06/03 10:35:13;;;;;;;10.85;9.70;;;26.70;99.90;;;;;;5016375;28;20486;-72
2021/06/03 10:37:40;;;;;;;11.57;9.80;;;27.00;99.90;;;;;;5019513;28;20080;-71
2021/06/03 10:40:09;;;;;;;12.13;9.95;;;27.30;99.90;;;;;;5018699;28;20756;-71
2021/06/03 10:42:35;;;;;;;13.65;10.82;;;27.40;99.90;;;;;;5018636;28;20092;-70
2021/06/03 10:45:04;;;;;;;9.85;8.85;;;26.90;99.90;;;;;;5017154;28;20510;-73
2021/06/03 10:47:30;;;;;;;9.85;8.18;;;27.00;99.90;;;;;;5010044;28;117802;-71
2021/06/03 10:49:59;;;;;;;9.38;8.13;;;27.20;99.90;;;;;;5015964;28;20063;-70
2021/06/03 10:52:26;;;;;;;11.00;8.32;;;27.40;99.90;;;;;;5016878;28;20561;-72
2021/06/03 10:54:56;;;;;;;9.18;8.02;;;27.80;99.90;;;;;;5024706;28;20055;-72
2021/06/03 10:57:53;;;;;;;14.18;9.07;;;28.20;99.90;;;;;;5023005;28;20029;-72
2021/06/03 11:00:26;;;;;;;9.07;8.25;;;28.10;99.90;;;;;;5018187;28;20029;-71
2021/06/03 11:03:18;;;;;;;12.70;8.98;;;27.50;99.90;;;;;;5012584;28;20125;-71
2021/06/03 11:05:46;;;;;;;10.35;8.25;;;27.40;99.90;;;;;;5014382;28;20030;-72
2021/06/03 11:09:02;;;;;;;10.27;9.32;;;27.30;99.90;;;;;;5018682;28;20026;-71
2021/06/03 11:11:38;;;;;;;11.70;8.95;;;27.40;99.90;;;;;;4995185;28;20034;-74
2021/06/03 11:14:08;;;;;;;9.15;8.25;;;27.50;99.90;;;;;;5020196;28;20030;-71
2021/06/03 11:16:36;;;;;;;9.00;8.13;;;27.70;99.90;;;;;;5028568;28;20017;-71
2021/06/03 11:19:02;;;;;;;10.77;9.68;;;27.70;99.90;;;;;;5028923;28;20046;-71
2021/06/03 11:21:37;;;;;;;8.90;8.00;;;27.80;99.90;;;;;;5017890;28;20072;-72
2021/06/03 11:24:24;;;;;;;10.30;9.18;;;27.50;99.90;;;;;;5016997;28;20467;-71
2021/06/03 11:26:56;;;;;;;9.27;7.75;;;27.50;99.90;;;;;;5021493;28;20532;-70
2021/06/03 11:29:54;;;;;;;9.45;8.52;;;27.60;99.90;;;;;;5019099;28;20110;-78
2021/06/03 11:32:25;;;;;;;11.73;8.40;;;27.80;99.90;;;;;;5021203;28;20021;-80
2021/06/03 11:34:59;;;;;;;13.27;7.93;;;27.80;99.90;;;;;;5013868;28;20071;-74
2021/06/03 11:37:24;;;;;;;9.90;7.80;;;28.00;99.90;;;;;;5023472;28;20022;-75
2021/06/03 11:40:00;;;;;;;14.35;8.15;;;28.40;99.90;;;;;;5018058;28;20049;-70
2021/06/03 11:42:31;;;;;;;9.27;8.40;;;28.70;99.90;;;;;;5026552;28;20025;-70
2021/06/03 11:45:07;;;;;;;9.13;7.90;;;28.90;99.90;;;;;;5014456;28;20034;-70
2021/06/03 11:47:42;;;;;;;20.38;9.57;;;29.10;99.90;;;;;;5018375;28;20037;-70
2021/06/03 11:50:16;;;;;;;11.93;8.15;;;28.90;99.20;;;;;;5016529;28;20387;-71
2021/06/03 11:53:02;;;;;;;10.73;8.98;;;29.20;99.80;;;;;;5023660;28;20033;-70
2021/06/03 11:55:42;;;;;;;9.50;8.30;;;29.40;99.90;;;;;;5012810;28;20025;-69
2021/06/03 11:58:11;;;;;;;13.15;8.30;;;29.40;99.90;;;;;;5025365;28;20041;-70
2021/06/03 12:00:40;;;;;;;10.52;8.40;;;28.90;99.50;;;;;;5024107;28;20032;-70
2021/06/03 12:03:26;;;;;;;11.02;8.05;;;28.60;99.90;;;;;;5013106;28;20090;-71
2021/06/03 12:05:55;;;;;;;10.23;8.85;;;28.30;99.30;;;;;;5020169;28;20033;-70
2021/06/03 12:08:42;;;;;;;10.00;7.80;;;28.20;99.90;;;;;;5014310;28;20060;-70
2021/06/03 12:11:11;;;;;;;10.82;9.15;;;28.50;99.90;;;;;;5017655;28;20032;-70
2021/06/03 12:13:37;;;;;;;10.23;8.27;;;28.40;99.90;;;;;;5015596;28;20029;-71
2021/06/03 12:16:03;;;;;;;10.60;8.70;;;28.60;99.90;;;;;;5015345;28;20021;-70
2021/06/03 12:18:34;;;;;;;8.20;7.50;;;28.70;99.90;;;;;;5019436;28;20066;-71
2021/06/03 12:21:00;;;;;;;11.40;8.23;;;28.60;99.40;;;;;;5019347;28;20105;-71
2021/06/03 12:23:26;;;;;;;8.05;7.15;;;28.80;99.00;;;;;;5016142;28;20030;-71
2021/06/03 12:25:52;;;;;;;8.38;7.65;;;29.20;97.90;;;;;;5013960;28;20032;-70
2021/06/03 12:28:18;;;;;;;9.65;8.30;;;29.20;98.10;;;;;;5017011;28;20100;-72
2021/06/03 12:30:44;;;;;;;9.43;8.52;;;29.10;99.30;;;;;;5013767;28;20030;-70
2021/06/03 12:33:26;;;;;;;10.63;8.10;;;29.00;99.40;;;;;;5023673;28;20482;-70
2021/06/03 12:35:58;;;;;;;9.50;8.35;;;29.00;98.90;;;;;;5024238;28;20079;-69
2021/06/03 12:38:34;;;;;;;8.73;7.78;;;29.10;97.90;;;;;;5015974;28;20069;-71
2021/06/03 12:41:21;;;;;;;9.65;7.85;;;29.30;98.90;;;;;;5018547;28;20038;-70
2021/06/03 12:43:50;;;;;;;14.35;8.27;;;29.10;97.90;;;;;;5018790;28;20029;-71
2021/06/03 12:46:16;;;;;;;8.63;7.82;;;28.90;98.10;;;;;;5020142;28;20034;-70
2021/06/03 12:48:41;;;;;;;8.23;7.43;;;28.80;97.40;;;;;;5013867;28;20080;-71
2021/06/03 12:51:14;;;;;;;13.73;8.95;;;28.80;98.70;;;;;;5017948;28;20124;-79
2021/06/03 12:53:47;;;;;;;9.60;8.57;;;28.60;99.10;;;;;;5015208;28;20026;-70